Time,TemperatureF,DewpointF,PressureIn,WindDirection,WindDirectionDegrees,WindSpeedMPH,WindSpeedGustMPH,Humidity,HourlyPrecipIn,Conditions,Clouds,dailyrainin,SolarRadiationWatts/m^2,SoftwareType,DateUTC
2013-03-16 00:02:00,75.0,41.0,-100.00,NW,321,0.0,11.0,30,0.00,,,0.00,0.000000,,2013-03-16 07:02:00,
2013-03-16 00:42:00,71.0,37.0,-100.00,South,183,0.0,13.0,29,0.00,,,0.00,0.000000,,2013-03-16 07:42:00,
2013-03-16 00:52:00,71.0,37.0,-100.00,South,183,0.0,13.0,29,0.00,,,0.00,0.000000,,2013-03-16 07:52:00,
2013-03-16 01:02:00,71.0,37.0,-100.00,South,183,0.0,13.0,29,0.00,,,0.00,0.000000,,2013-03-16 08:02:00,
2013-03-16 01:42:00,70.0,43.0,-100.00,East,99,1.0,5.0,37,0.00,,,0.00,0.000000,,2013-03-16 08:42:00,
2013-03-16 01:52:00,70.0,43.0,-100.00,East,99,1.0,5.0,37,0.00,,,0.00,0.000000,,2013-03-16 08:52:00,
2013-03-16 02:01:00,70.0,43.0,-100.00,East,99,1.0,5.0,37,0.00,,,0.00,0.000000,,2013-03-16 09:01:00,
2013-03-16 02:33:00,66.0,43.0,-100.00,ENE,64,0.0,4.0,44,0.00,,,0.00,0.000000,,2013-03-16 09:33:00,
2013-03-16 02:42:00,66.0,43.0,-100.00,ENE,64,0.0,4.0,44,0.00,,,0.00,0.000000,,2013-03-16 09:42:00,
2013-03-16 02:53:00,66.0,43.0,-100.00,ENE,64,0.0,4.0,44,0.00,,,0.00,0.000000,,2013-03-16 09:53:00,
2013-03-16 03:03:00,66.0,43.0,-100.00,ENE,64,0.0,4.0,44,0.00,,,0.00,0.000000,,2013-03-16 10:03:00,
2013-03-16 03:32:00,61.0,41.0,-100.00,ENE,77,0.0,4.0,48,0.00,,,0.00,0.000000,,2013-03-16 10:32:00,
2013-03-16 03:42:00,61.0,41.0,-100.00,ENE,77,0.0,4.0,48,0.00,,,0.00,0.000000,,2013-03-16 10:42:00,
2013-03-16 03:52:00,61.0,41.0,-100.00,ENE,77,0.0,4.0,48,0.00,,,0.00,0.000000,,2013-03-16 10:52:00,
2013-03-16 04:02:00,61.0,41.0,-100.00,ENE,77,0.0,4.0,48,0.00,,,0.00,0.000000,,2013-03-16 11:02:00,
2013-03-16 04:33:00,58.0,40.0,-100.00,NNE,15,0.0,3.0,52,0.00,,,-99.99,0.000000,,2013-03-16 11:33:00,
2013-03-16 04:43:00,58.0,40.0,-100.00,NNE,15,0.0,3.0,52,0.00,,,-99.99,0.000000,,2013-03-16 11:43:00,
2013-03-16 04:52:00,58.0,40.0,-100.00,NNE,15,0.0,3.0,52,0.00,,,-99.99,0.000000,,2013-03-16 11:52:00,
2013-03-16 05:01:00,58.0,40.0,-100.00,NNE,15,0.0,3.0,52,0.00,,,-99.99,0.000000,,2013-03-16 12:01:00,
2013-03-16 05:43:00,58.0,41.0,-100.00,NE,36,0.0,2.0,53,0.00,,,0.00,0.000000,,2013-03-16 12:43:00,
2013-03-16 05:52:00,58.0,41.0,-100.00,NE,36,0.0,2.0,53,0.00,,,0.00,0.000000,,2013-03-16 12:52:00,
2013-03-16 06:02:00,58.0,41.0,-100.00,NE,36,0.0,2.0,53,0.00,,,0.00,0.000000,,2013-03-16 13:02:00,
2013-03-16 06:42:00,56.0,39.0,-100.00,East,97,0.0,3.0,52,0.00,,,0.00,0.000000,,2013-03-16 13:42:00,
2013-03-16 06:53:00,56.0,39.0,-100.00,East,97,0.0,3.0,52,0.00,,,0.00,0.000000,,2013-03-16 13:53:00,
2013-03-16 07:02:00,56.0,39.0,-100.00,East,97,0.0,3.0,52,0.00,,,0.00,0.000000,,2013-03-16 14:02:00,
2013-03-16 07:42:00,57.0,40.0,-100.00,NE,47,1.0,4.0,53,0.00,,,0.00,0.000000,,2013-03-16 14:42:00,
2013-03-16 07:52:00,57.0,40.0,-100.00,NE,47,1.0,4.0,53,0.00,,,0.00,0.000000,,2013-03-16 14:52:00,
2013-03-16 08:02:00,57.0,40.0,-100.00,NE,47,1.0,4.0,53,0.00,,,0.00,0.000000,,2013-03-16 15:02:00,
2013-03-16 08:43:00,57.0,32.0,-100.00,WSW,254,0.0,3.0,38,0.00,,,-99.99,6.000000,,2013-03-16 15:43:00,
2013-03-16 08:53:00,57.0,32.0,-100.00,WSW,254,0.0,3.0,38,0.00,,,-99.99,6.000000,,2013-03-16 15:53:00,
2013-03-16 09:43:00,63.0,29.0,-100.00,East,95,1.0,3.0,28,-99.99,,,-99.99,121.000000,,2013-03-16 16:43:00,
2013-03-16 09:53:00,63.0,29.0,-100.00,East,95,1.0,3.0,28,-99.99,,,-99.99,121.000000,,2013-03-16 16:53:00,
2013-03-16 10:43:00,70.0,30.0,-100.00,South,182,3.0,11.0,23,0.00,,,0.00,250.000000,,2013-03-16 17:43:00,
2013-03-16 10:53:00,70.0,30.0,-100.00,South,182,3.0,11.0,23,0.00,,,0.00,250.000000,,2013-03-16 17:53:00,
2013-03-16 11:33:00,78.0,32.0,-100.00,South,185,4.0,5.0,19,0.00,,,0.00,524.000000,,2013-03-16 18:33:00,
2013-03-16 11:43:00,78.0,32.0,-100.00,South,185,4.0,5.0,19,0.00,,,0.00,524.000000,,2013-03-16 18:43:00,
2013-03-16 11:53:00,78.0,32.0,-100.00,South,185,4.0,5.0,19,0.00,,,0.00,524.000000,,2013-03-16 18:53:00,
2013-03-16 12:02:00,78.0,32.0,-100.00,South,185,4.0,5.0,19,0.00,,,0.00,524.000000,,2013-03-16 19:02:00,
2013-03-16 12:42:00,83.0,29.0,-100.00,NNE,27,2.0,7.0,14,0.00,,,0.00,768.000000,,2013-03-16 19:42:00,
2013-03-16 12:52:00,83.0,29.0,-100.00,NNE,27,2.0,7.0,14,0.00,,,0.00,768.000000,,2013-03-16 19:52:00,
2013-03-16 13:02:00,83.0,29.0,-100.00,NNE,27,2.0,7.0,14,0.00,,,0.00,768.000000,,2013-03-16 20:02:00,
2013-03-16 13:42:00,88.0,31.0,-100.00,SW,226,4.0,10.0,13,0.00,,,0.00,869.000000,,2013-03-16 20:42:00,
2013-03-16 13:52:00,88.0,31.0,-100.00,SW,226,4.0,10.0,13,0.00,,,0.00,869.000000,,2013-03-16 20:52:00,
2013-03-16 14:02:00,88.0,31.0,-100.00,SW,226,4.0,10.0,13,0.00,,,0.00,869.000000,,2013-03-16 21:02:00,
2013-03-16 14:33:00,90.0,24.0,-100.00,West,273,4.0,10.0,9,0.00,,,0.00,1075.000000,,2013-03-16 21:33:00,
2013-03-16 14:43:00,90.0,24.0,-100.00,West,273,4.0,10.0,9,0.00,,,0.00,1075.000000,,2013-03-16 21:43:00,
2013-03-16 14:52:00,90.0,24.0,-100.00,West,273,4.0,10.0,9,0.00,,,0.00,1075.000000,,2013-03-16 21:52:00,
2013-03-16 15:03:00,90.0,24.0,-100.00,West,273,4.0,10.0,9,0.00,,,0.00,1075.000000,,2013-03-16 22:03:00,
2013-03-16 15:33:00,93.0,16.0,-100.00,WNW,299,7.0,15.0,6,0.00,,,0.00,1083.000000,,2013-03-16 22:33:00,
2013-03-16 16:42:00,95.0,18.0,-100.00,West,265,6.0,12.0,6,0.00,,,0.00,984.000000,,2013-03-16 23:42:00,
2013-03-16 16:52:00,95.0,18.0,-100.00,West,265,6.0,12.0,6,0.00,,,0.00,984.000000,,2013-03-16 23:52:00,
2013-03-16 18:42:00,93.0,35.0,-100.00,SSW,202,8.0,15.0,13,-99.99,,,0.00,547.000000,,2013-03-17 01:42:00,
2013-03-16 18:53:00,93.0,35.0,-100.00,SSW,202,8.0,15.0,13,-99.99,,,0.00,547.000000,,2013-03-17 01:53:00,
2013-03-16 19:02:00,93.0,35.0,-100.00,SSW,202,8.0,15.0,13,-99.99,,,0.00,547.000000,,2013-03-17 02:02:00,
2013-03-16 19:33:00,89.0,44.0,-100.00,WSW,250,2.0,13.0,21,-99.99,,,0.00,267.000000,,2013-03-17 02:33:00,
2013-03-16 20:34:00,84.0,42.0,-100.00,SW,224,0.0,12.0,23,0.00,,,0.00,33.000000,,2013-03-17 03:34:00,
2013-03-16 21:43:00,76.0,25.0,-100.00,WSW,237,3.0,6.0,15,0.00,,,0.00,0.000000,,2013-03-17 04:43:00,
2013-03-16 21:53:00,76.0,25.0,-100.00,WSW,237,3.0,6.0,15,0.00,,,0.00,0.000000,,2013-03-17 04:53:00,
2013-03-16 22:42:00,77.0,32.0,-100.00,SSW,211,2.0,8.0,19,0.00,,,0.00,0.000000,,2013-03-17 05:42:00,
2013-03-16 22:52:00,77.0,32.0,-100.00,SSW,211,2.0,8.0,19,0.00,,,0.00,0.000000,,2013-03-17 05:52:00,
2013-03-16 23:02:00,77.0,32.0,-100.00,SSW,211,2.0,8.0,19,0.00,,,0.00,0.000000,,2013-03-17 06:02:00,
2013-03-16 23:32:00,74.0,29.0,-100.00,WSW,254,4.0,6.0,19,0.00,,,0.00,0.000000,,2013-03-17 06:32:00,